sensor_id;sensor_type;location;lat;lon;timestamp;pressure;altitude;pressure_sealevel;temperature;humidity
25232;BME280;13176;51.140;6.290;2023-04-09T00:01:33;101782.78;;;12.71;69.26
25232;BME280;13176;51.140;6.290;2023-04-09T00:03:59;101815.09;;;12.67;70.20
25232;BME280;13176;51.140;6.290;2023-04-09T00:06:26;101818.63;;;12.51;70.81
25232;BME280;13176;51.140;6.290;2023-04-09T00:08:52;101829.13;;;12.43;72.08
25232;BME280;13176;51.140;6.290;2023-04-09T00:11:19;101808.25;;;12.28;72.59
25232;BME280;13176;51.140;6.290;2023-04-09T00:13:46;101707.22;;;11.70;70.57
25232;BME280;13176;51.140;6.290;2023-04-09T00:16:13;101703.72;;;11.86;71.18
25232;BME280;13176;51.140;6.290;2023-04-09T00:18:40;101819.50;;;12.53;70.75
25232;BME280;13176;51.140;6.290;2023-04-09T00:21:07;101755.91;;;12.25;70.30
25232;BME280;13176;51.140;6.290;2023-04-09T00:23:34;101829.94;;;12.62;70.34
25232;BME280;13176;51.140;6.290;2023-04-09T00:26:01;101808.16;;;12.46;70.31
25232;BME280;13176;51.140;6.290;2023-04-09T00:28:27;101814.28;;;12.48;70.47
25232;BME280;13176;51.140;6.290;2023-04-09T00:30:54;101750.72;;;12.07;70.79
25232;BME280;13176;51.140;6.290;2023-04-09T00:33:20;101820.44;;;12.38;71.20
25232;BME280;13176;51.140;6.290;2023-04-09T00:35:46;101714.19;;;11.86;70.76
25232;BME280;13176;51.140;6.290;2023-04-09T00:38:13;101797.75;;;12.34;69.97
25232;BME280;13176;51.140;6.290;2023-04-09T00:40:39;101704.59;;;11.82;70.40
25232;BME280;13176;51.140;6.290;2023-04-09T00:43:06;101731.53;;;12.08;70.46
25232;BME280;13176;51.140;6.290;2023-04-09T00:45:32;101812.53;;;12.51;69.87
25232;BME280;13176;51.140;6.290;2023-04-09T00:47:59;101787.28;;;12.37;70.48
25232;BME280;13176;51.140;6.290;2023-04-09T00:50:26;101796.00;;;12.34;70.54
25232;BME280;13176;51.140;6.290;2023-04-09T00:52:52;101811.72;;;12.36;71.00
25232;BME280;13176;51.140;6.290;2023-04-09T00:55:20;101789.06;;;12.23;71.24
25232;BME280;13176;51.140;6.290;2023-04-09T00:57:46;101796.88;;;12.33;71.71
25232;BME280;13176;51.140;6.290;2023-04-09T01:00:13;101778.63;;;12.14;71.10
25232;BME280;13176;51.140;6.290;2023-04-09T01:02:40;101782.13;;;12.17;71.55
25232;BME280;13176;51.140;6.290;2023-04-09T01:05:07;101804.75;;;12.23;72.33
25232;BME280;13176;51.140;6.290;2023-04-09T01:13:15;101803.00;;;12.31;72.32
25232;BME280;13176;51.140;6.290;2023-04-09T01:15:58;101813.47;;;12.34;72.34
25232;BME280;13176;51.140;6.290;2023-04-09T01:18:35;101800.38;;;12.34;71.70
25232;BME280;13176;51.140;6.290;2023-04-09T01:21:10;101780.38;;;12.13;72.13
25232;BME280;13176;51.140;6.290;2023-04-09T01:24:15;101810.00;;;12.29;71.93
25232;BME280;13176;51.140;6.290;2023-04-09T01:29:34;101771.63;;;12.16;71.27
25232;BME280;13176;51.140;6.290;2023-04-09T01:32:04;101757.69;;;12.05;71.24
25232;BME280;13176;51.140;6.290;2023-04-09T01:34:32;101780.34;;;12.27;70.83
25232;BME280;13176;51.140;6.290;2023-04-09T01:37:01;101801.22;;;12.39;70.95
25232;BME280;13176;51.140;6.290;2023-04-09T01:39:28;101753.34;;;12.10;70.82
25232;BME280;13176;51.140;6.290;2023-04-09T01:41:55;101775.97;;;12.21;71.08
25232;BME280;13176;51.140;6.290;2023-04-09T01:44:23;101789.06;;;12.23;70.77
25232;BME280;13176;51.140;6.290;2023-04-09T01:46:52;101689.84;;;11.57;71.29
25232;BME280;13176;51.140;6.290;2023-04-09T01:49:19;101808.25;;;12.19;71.08
25232;BME280;13176;51.140;6.290;2023-04-09T01:51:47;101673.28;;;11.49;71.19
25232;BME280;13176;51.140;6.290;2023-04-09T01:54:15;101667.19;;;11.47;71.21
25232;BME280;13176;51.140;6.290;2023-04-09T01:56:43;101749.91;;;11.96;70.56
25232;BME280;13176;51.140;6.290;2023-04-09T01:59:10;101793.47;;;12.10;71.18
25232;BME280;13176;51.140;6.290;2023-04-09T02:01:44;101789.09;;;12.05;71.42
25232;BME280;13176;51.140;6.290;2023-04-09T02:04:21;101763.84;;;11.90;71.12
25232;BME280;13176;51.140;6.290;2023-04-09T02:07:05;101762.09;;;11.89;71.59
25232;BME280;13176;51.140;6.290;2023-04-09T02:09:38;101670.69;;;11.25;71.76
25232;BME280;13176;51.140;6.290;2023-04-09T02:12:09;101730.78;;;11.77;71.83
25232;BME280;13176;51.140;6.290;2023-04-09T02:14:39;101761.25;;;11.95;71.93
25232;BME280;13176;51.140;6.290;2023-04-09T02:17:05;101688.06;;;11.53;72.10
25232;BME280;13176;51.140;6.290;2023-04-09T02:19:45;101772.53;;;12.09;72.18
25232;BME280;13176;51.140;6.290;2023-04-09T02:22:12;101785.59;;;12.12;72.29
25232;BME280;13176;51.140;6.290;2023-04-09T02:24:39;101721.16;;;11.81;71.95
25232;BME280;13176;51.140;6.290;2023-04-09T02:27:07;101771.63;;;12.13;71.69
25232;BME280;13176;51.140;6.290;2023-04-09T02:29:33;101721.19;;;11.69;71.57
25232;BME280;13176;51.140;6.290;2023-04-09T02:32:00;101763.00;;;11.87;71.66
25232;BME280;13176;51.140;6.290;2023-04-09T02:34:27;101675.88;;;11.46;71.67
25232;BME280;13176;51.140;6.290;2023-04-09T02:36:53;101736.00;;;11.80;71.88
25232;BME280;13176;51.140;6.290;2023-04-09T02:39:19;101729.88;;;11.74;71.72
25232;BME280;13176;51.140;6.290;2023-04-09T02:41:46;101674.19;;;11.27;71.53
25232;BME280;13176;51.140;6.290;2023-04-09T02:44:12;101700.28;;;11.33;71.70
25232;BME280;13176;51.140;6.290;2023-04-09T02:46:39;101765.63;;;11.55;72.07
25232;BME280;13176;51.140;6.290;2023-04-09T02:49:06;101671.56;;;10.76;73.00
25232;BME280;13176;51.140;6.290;2023-04-09T02:51:34;101721.19;;;10.88;73.50
25232;BME280;13176;51.140;6.290;2023-04-09T02:54:02;101755.13;;;10.85;75.33
25232;BME280;13176;51.140;6.290;2023-04-09T02:56:28;101759.50;;;10.89;74.77
25232;BME280;13176;51.140;6.290;2023-04-09T02:58:55;101686.31;;;10.59;74.29
25232;BME280;13176;51.140;6.290;2023-04-09T03:01:21;101719.41;;;10.72;71.78
25232;BME280;13176;51.140;6.290;2023-04-09T03:03:48;101765.59;;;10.99;72.87
25232;BME280;13176;51.140;6.290;2023-04-09T03:06:14;101639.25;;;10.23;72.54
25232;BME280;13176;51.140;6.290;2023-04-09T03:08:41;101746.38;;;10.79;72.77
25232;BME280;13176;51.140;6.290;2023-04-09T03:11:07;101654.06;;;10.24;72.89
25232;BME280;13176;51.140;6.290;2023-04-09T03:13:33;101630.53;;;10.11;72.31
25232;BME280;13176;51.140;6.290;2023-04-09T03:16:00;101718.50;;;10.58;72.99
25232;BME280;13176;51.140;6.290;2023-04-09T03:18:26;101715.84;;;10.43;73.16
25232;BME280;13176;51.140;6.290;2023-04-09T03:20:53;101710.59;;;10.34;72.95
25232;BME280;13176;51.140;6.290;2023-04-09T03:23:19;101737.59;;;10.47;72.71
25232;BME280;13176;51.140;6.290;2023-04-09T03:25:45;101650.50;;;10.02;72.84
25232;BME280;13176;51.140;6.290;2023-04-09T03:28:12;101687.97;;;10.27;72.18
25232;BME280;13176;51.140;6.290;2023-04-09T03:30:38;101700.19;;;10.33;71.80
25232;BME280;13176;51.140;6.290;2023-04-09T03:33:04;101638.34;;;10.05;71.87
25232;BME280;13176;51.140;6.290;2023-04-09T03:35:31;101641.84;;;10.12;71.20
25232;BME280;13176;51.140;6.290;2023-04-09T03:37:57;101662.72;;;10.16;70.99
25232;BME280;13176;51.140;6.290;2023-04-09T03:40:24;101731.56;;;10.61;71.73
25232;BME280;13176;51.140;6.290;2023-04-09T03:42:50;101690.63;;;10.42;71.15
25232;BME280;13176;51.140;6.290;2023-04-09T03:45:17;101602.66;;;9.97;71.24
25232;BME280;13176;51.140;6.290;2023-04-09T03:47:43;101721.13;;;10.64;71.24
25232;BME280;13176;51.140;6.290;2023-04-09T03:50:09;101679.31;;;10.45;71.44
25232;BME280;13176;51.140;6.290;2023-04-09T03:52:36;101726.38;;;10.73;70.93
25232;BME280;13176;51.140;6.290;2023-04-09T03:55:03;101724.63;;;10.72;71.88
25232;BME280;13176;51.140;6.290;2023-04-09T03:57:30;101602.72;;;10.03;71.68
25232;BME280;13176;51.140;6.290;2023-04-09T03:59:56;101715.88;;;10.61;71.62
25232;BME280;13176;51.140;6.290;2023-04-09T04:02:22;101720.22;;;10.56;71.65
25232;BME280;13176;51.140;6.290;2023-04-09T04:04:52;101724.56;;;10.57;71.44
25232;BME280;13176;51.140;6.290;2023-04-09T04:07:18;101726.34;;;10.52;71.75
25232;BME280;13176;51.140;6.290;2023-04-09T04:09:45;101686.22;;;10.23;72.20
25232;BME280;13176;51.140;6.290;2023-04-09T04:12:11;101748.94;;;10.53;72.21
25232;BME280;13176;51.140;6.290;2023-04-09T04:14:37;101736.72;;;10.48;71.69
25232;BME280;13176;51.140;6.290;2023-04-09T04:17:04;101732.34;;;10.41;72.32
25232;BME280;13176;51.140;6.290;2023-04-09T04:19:30;101724.44;;;10.16;72.42
25232;BME280;13176;51.140;6.290;2023-04-09T04:21:57;101740.06;;;10.07;73.95
25232;BME280;13176;51.140;6.290;2023-04-09T04:24:23;101659.81;;;9.58;74.66
25232;BME280;13176;51.140;6.290;2023-04-09T04:26:49;101719.09;;;9.95;74.15
25232;BME280;13176;51.140;6.290;2023-04-09T04:29:16;101740.91;;;10.01;73.79
25232;BME280;13176;51.140;6.290;2023-04-09T04:31:43;101758.31;;;10.14;73.99
25232;BME280;13176;51.140;6.290;2023-04-09T04:34:09;101734.75;;;9.98;74.04
25232;BME280;13176;51.140;6.290;2023-04-09T04:36:36;101726.84;;;9.84;73.91
25232;BME280;13176;51.140;6.290;2023-04-09T04:39:03;101682.31;;;9.47;73.65
25232;BME280;13176;51.140;6.290;2023-04-09T04:41:29;101722.31;;;9.55;73.90
25232;BME280;13176;51.140;6.290;2023-04-09T04:43:55;101659.50;;;9.10;75.06
25232;BME280;13176;51.140;6.290;2023-04-09T04:46:22;101749.28;;;9.60;74.02
25232;BME280;13176;51.140;6.290;2023-04-09T04:48:48;101746.72;;;9.66;74.31
25232;BME280;13176;51.140;6.290;2023-04-09T04:51:15;101763.34;;;9.84;73.96
25232;BME280;13176;51.140;6.290;2023-04-09T04:53:42;101741.56;;;9.75;73.84
25232;BME280;13176;51.140;6.290;2023-04-09T04:56:14;101775.50;;;9.84;72.93
25232;BME280;13176;51.140;6.290;2023-04-09T04:58:41;101661.22;;;9.08;72.92
25232;BME280;13176;51.140;6.290;2023-04-09T05:01:08;101724.13;;;9.65;73.29
25232;BME280;13176;51.140;6.290;2023-04-09T05:03:34;101742.38;;;9.69;72.19
25232;BME280;13176;51.140;6.290;2023-04-09T05:06:01;101730.34;;;9.82;72.02
25232;BME280;13176;51.140;6.290;2023-04-09T05:08:28;101614.41;;;9.15;71.36
25232;BME280;13176;51.140;6.290;2023-04-09T05:10:54;101766.00;;;9.95;71.05
25232;BME280;13176;51.140;6.290;2023-04-09T05:13:22;101720.69;;;9.69;71.17
25232;BME280;13176;51.140;6.290;2023-04-09T05:15:48;101726.78;;;9.75;70.90
25232;BME280;13176;51.140;6.290;2023-04-09T05:18:15;101739.84;;;9.77;70.85
25232;BME280;13176;51.140;6.290;2023-04-09T05:20:41;101749.31;;;9.67;71.60
25232;BME280;13176;51.140;6.290;2023-04-09T05:23:08;101685.66;;;9.28;71.98
25232;BME280;13176;51.140;6.290;2023-04-09T05:25:38;101762.38;;;9.69;72.18
25232;BME280;13176;51.140;6.290;2023-04-09T05:28:04;101742.22;;;9.47;72.50
25232;BME280;13176;51.140;6.290;2023-04-09T05:30:31;101748.31;;;9.49;72.97
25232;BME280;13176;51.140;6.290;2023-04-09T05:32:57;101622.78;;;8.77;73.04
25232;BME280;13176;51.140;6.290;2023-04-09T05:35:24;101749.19;;;9.51;72.08
25232;BME280;13176;51.140;6.290;2023-04-09T05:37:50;101716.09;;;9.32;72.93
25232;BME280;13176;51.140;6.290;2023-04-09T05:40:17;101760.47;;;9.44;73.55
25232;BME280;13176;51.140;6.290;2023-04-09T05:42:43;101711.47;;;8.98;74.67
25232;BME280;13176;51.140;6.290;2023-04-09T05:45:10;101701.00;;;8.92;74.73
25232;BME280;13176;51.140;6.290;2023-04-09T05:47:36;101727.06;;;8.98;75.79
25232;BME280;13176;51.140;6.290;2023-04-09T05:50:03;101742.84;;;9.16;75.51
25232;BME280;13176;51.140;6.290;2023-04-09T05:52:29;101634.66;;;8.48;76.11
25232;BME280;13176;51.140;6.290;2023-04-09T05:54:56;101712.38;;;9.03;76.09
25232;BME280;13176;51.140;6.290;2023-04-09T05:57:22;101740.31;;;9.23;76.24
25232;BME280;13176;51.140;6.290;2023-04-09T05:59:48;101731.72;;;9.32;76.53
25232;BME280;13176;51.140;6.290;2023-04-09T06:02:15;101636.72;;;8.85;76.27
25232;BME280;13176;51.140;6.290;2023-04-09T06:04:41;101723.06;;;9.37;76.31
25232;BME280;13176;51.140;6.290;2023-04-09T06:07:08;101689.97;;;9.23;76.46
25232;BME280;13176;51.140;6.290;2023-04-09T06:09:34;101740.59;;;9.61;76.15
25232;BME280;13176;51.140;6.290;2023-04-09T06:12:01;101516.88;;;8.63;75.99
25232;BME280;13176;51.140;6.290;2023-04-09T06:14:27;101721.75;;;10.01;76.16
25232;BME280;13176;51.140;6.290;2023-04-09T06:16:54;101757.56;;;10.37;75.90
25232;BME280;13176;51.140;6.290;2023-04-09T06:19:21;101638.25;;;9.84;75.81
25232;BME280;13176;51.140;6.290;2023-04-09T06:21:47;101708.00;;;10.30;75.56
25232;BME280;13176;51.140;6.290;2023-04-09T06:24:13;101740.25;;;10.63;75.51
25232;BME280;13176;51.140;6.290;2023-04-09T06:26:40;101745.53;;;10.81;75.30
25232;BME280;13176;51.140;6.290;2023-04-09T06:29:06;101748.16;;;10.81;75.20
25232;BME280;13176;51.140;6.290;2023-04-09T06:31:33;101749.88;;;10.87;75.52
25232;BME280;13176;51.140;6.290;2023-04-09T06:33:59;101751.66;;;10.94;75.19
25232;BME280;13176;51.140;6.290;2023-04-09T06:36:26;101614.06;;;10.25;74.96
25232;BME280;13176;51.140;6.290;2023-04-09T06:38:53;101691.53;;;10.62;75.55
25232;BME280;13176;51.140;6.290;2023-04-09T06:41:20;101768.25;;;11.24;75.45
25232;BME280;13176;51.140;6.290;2023-04-09T06:43:47;101763.84;;;11.19;75.69
25232;BME280;13176;51.140;6.290;2023-04-09T06:46:14;101762.13;;;11.24;75.59
25232;BME280;13176;51.140;6.290;2023-04-09T06:48:43;101620.19;;;10.36;75.28
25232;BME280;13176;51.140;6.290;2023-04-09T06:51:09;101691.59;;;10.83;75.30
25232;BME280;13176;51.140;6.290;2023-04-09T06:53:37;101789.13;;;11.42;75.71
25232;BME280;13176;51.140;6.290;2023-04-09T06:56:04;101783.91;;;11.52;75.98
25232;BME280;13176;51.140;6.290;2023-04-09T06:58:31;101780.44;;;11.46;76.37
25232;BME280;13176;51.140;6.290;2023-04-09T07:00:58;101743.84;;;11.40;75.59
25232;BME280;13176;51.140;6.290;2023-04-09T07:03:25;101713.38;;;11.27;75.84
25232;BME280;13176;51.140;6.290;2023-04-09T07:05:53;101729.91;;;11.33;76.08
25232;BME280;13176;51.140;6.290;2023-04-09T07:08:20;101624.56;;;10.78;75.58
25232;BME280;13176;51.140;6.290;2023-04-09T07:10:48;101749.97;;;11.57;76.16
25232;BME280;13176;51.140;6.290;2023-04-09T07:13:14;101718.56;;;11.49;75.92
25232;BME280;13176;51.140;6.290;2023-04-09T07:15:41;101748.19;;;11.71;75.74
25232;BME280;13176;51.140;6.290;2023-04-09T07:18:08;101776.03;;;11.94;76.06
25232;BME280;13176;51.140;6.290;2023-04-09T07:20:34;101738.59;;;11.76;75.33
25232;BME280;13176;51.140;6.290;2023-04-09T07:23:01;101766.47;;;11.95;75.07
25232;BME280;13176;51.140;6.290;2023-04-09T07:25:27;101736.00;;;11.83;75.79
25232;BME280;13176;51.140;6.290;2023-04-09T07:27:54;101757.69;;;12.08;75.35
25232;BME280;13176;51.140;6.290;2023-04-09T07:30:20;101756.81;;;12.09;74.53
25232;BME280;13176;51.140;6.290;2023-04-09T07:32:47;101760.28;;;12.20;74.73
25232;BME280;13176;51.140;6.290;2023-04-09T07:35:13;101679.34;;;11.75;74.86
25232;BME280;13176;51.140;6.290;2023-04-09T07:37:40;101734.16;;;12.09;72.60
25232;BME280;13176;51.140;6.290;2023-04-09T07:40:07;101773.34;;;12.29;71.61
25232;BME280;13176;51.140;6.290;2023-04-09T07:42:36;101748.94;;;12.21;71.19
25232;BME280;13176;51.140;6.290;2023-04-09T07:45:03;101802.06;;;12.48;70.95
25232;BME280;13176;51.140;6.290;2023-04-09T07:47:30;101779.34;;;12.51;71.09
25232;BME280;13176;51.140;6.290;2023-04-09T07:49:57;101754.94;;;12.49;71.29
25232;BME280;13176;51.140;6.290;2023-04-09T07:52:23;101802.84;;;12.72;71.31
25232;BME280;13176;51.140;6.290;2023-04-09T07:54:50;101656.63;;;11.92;69.56
25232;BME280;13176;51.140;6.290;2023-04-09T07:57:16;101672.19;;;12.19;70.01
25232;BME280;13176;51.140;6.290;2023-04-09T07:59:42;101787.91;;;12.83;69.29
25232;BME280;13176;51.140;6.290;2023-04-09T08:02:09;101656.50;;;12.19;69.33
25232;BME280;13176;51.140;6.290;2023-04-09T08:04:40;101798.28;;;13.10;69.91
25232;BME280;13176;51.140;6.290;2023-04-09T08:07:06;101705.13;;;12.61;70.11
25232;BME280;13176;51.140;6.290;2023-04-09T08:09:33;101700.78;;;12.60;69.67
25232;BME280;13176;51.140;6.290;2023-04-09T08:11:59;101774.69;;;13.09;68.53
25232;BME280;13176;51.140;6.290;2023-04-09T08:14:26;101749.44;;;12.99;67.45
25232;BME280;13176;51.140;6.290;2023-04-09T08:16:52;101657.19;;;12.52;66.61
25232;BME280;13176;51.140;6.290;2023-04-09T08:19:19;101772.69;;;13.45;66.73
25232;BME280;13176;51.140;6.290;2023-04-09T08:21:45;101686.53;;;13.02;68.42
25232;BME280;13176;51.140;6.290;2023-04-09T08:24:14;101786.53;;;13.61;69.03
25232;BME280;13176;51.140;6.290;2023-04-09T08:26:41;101777.75;;;13.63;68.31
25232;BME280;13176;51.140;6.290;2023-04-09T08:29:10;101760.34;;;13.56;67.44
25232;BME280;13176;51.140;6.290;2023-04-09T08:31:37;101636.84;;;12.91;68.21
25232;BME280;13176;51.140;6.290;2023-04-09T08:34:05;101789.81;;;13.83;68.05
25232;BME280;13176;51.140;6.290;2023-04-09T08:36:31;101690.56;;;13.43;67.33
25232;BME280;13176;51.140;6.290;2023-04-09T08:39:00;101737.38;;;13.82;67.83
25232;BME280;13176;51.140;6.290;2023-04-09T08:41:27;101755.47;;;14.04;68.31
25232;BME280;13176;51.140;6.290;2023-04-09T08:43:55;101733.69;;;13.99;68.79
25232;BME280;13176;51.140;6.290;2023-04-09T08:46:25;101769.25;;;14.27;67.85
25232;BME280;13176;51.140;6.290;2023-04-09T08:48:51;101686.41;;;14.01;67.38
25232;BME280;13176;51.140;6.290;2023-04-09T08:51:20;101761.19;;;14.44;65.19
25232;BME280;13176;51.140;6.290;2023-04-09T08:53:48;101785.19;;;14.82;66.26
25232;BME280;13176;51.140;6.290;2023-04-09T08:56:18;101771.22;;;14.80;65.23
25232;BME280;13176;51.140;6.290;2023-04-09T08:58:47;101695.63;;;14.36;64.73
25232;BME280;13176;51.140;6.290;2023-04-09T09:01:25;101784.84;;;15.05;63.54
25232;BME280;13176;51.140;6.290;2023-04-09T09:03:53;101777.78;;;15.10;63.09
25232;BME280;13176;51.140;6.290;2023-04-09T09:06:23;101770.56;;;15.24;63.93
25232;BME280;13176;51.140;6.290;2023-04-09T09:11:36;101709.53;;;15.03;61.28
25232;BME280;13176;51.140;6.290;2023-04-09T09:14:04;101705.75;;;15.20;60.71
25232;BME280;13176;51.140;6.290;2023-04-09T09:16:37;101764.72;;;15.60;60.20
25232;BME280;13176;51.140;6.290;2023-04-09T09:19:09;101640.34;;;15.01;60.45
25232;BME280;13176;51.140;6.290;2023-04-09T09:21:35;101690.66;;;15.31;57.97
25232;BME280;13176;51.140;6.290;2023-04-09T09:24:15;101765.75;;;16.00;58.64
25232;BME280;13176;51.140;6.290;2023-04-09T09:26:42;101765.75;;;16.00;57.15
25232;BME280;13176;51.140;6.290;2023-04-09T09:29:08;101766.66;;;15.98;56.70
25232;BME280;13176;51.140;6.290;2023-04-09T09:31:45;101750.31;;;16.24;57.57
25232;BME280;13176;51.140;6.290;2023-04-09T09:34:15;101751.16;;;16.28;56.92
25232;BME280;13176;51.140;6.290;2023-04-09T09:36:45;101767.00;;;16.25;55.13
25232;BME280;13176;51.140;6.290;2023-04-09T09:39:13;101673.94;;;15.82;54.33
25232;BME280;13176;51.140;6.290;2023-04-09T09:41:43;101744.63;;;16.47;56.46
25232;BME280;13176;51.140;6.290;2023-04-09T09:44:11;101766.88;;;16.75;54.78
25232;BME280;13176;51.140;6.290;2023-04-09T09:46:39;101767.50;;;16.86;55.58
25232;BME280;13176;51.140;6.290;2023-04-09T09:49:08;101711.00;;;16.58;53.23
25232;BME280;13176;51.140;6.290;2023-04-09T09:51:36;101765.28;;;17.06;51.63
25232;BME280;13176;51.140;6.290;2023-04-09T09:54:06;101617.59;;;16.33;50.18
25232;BME280;13176;51.140;6.290;2023-04-09T09:56:37;101741.06;;;16.89;48.51
25232;BME280;13176;51.140;6.290;2023-04-09T09:59:21;101737.03;;;17.11;47.98
25232;BME280;13176;51.140;6.290;2023-04-09T10:02:17;101679.63;;;16.84;48.72
25232;BME280;13176;51.140;6.290;2023-04-09T10:04:44;101716.63;;;17.17;47.46
25232;BME280;13176;51.140;6.290;2023-04-09T10:07:14;101723.19;;;17.37;47.26
25232;BME280;13176;51.140;6.290;2023-04-09T10:09:44;101708.47;;;17.27;44.96
25232;BME280;13176;51.140;6.290;2023-04-09T10:12:14;101734.50;;;17.42;43.68
25232;BME280;13176;51.140;6.290;2023-04-09T10:14:41;101756.50;;;17.76;43.82
25232;BME280;13176;51.140;6.290;2023-04-09T10:17:08;101697.66;;;17.38;45.12
25232;BME280;13176;51.140;6.290;2023-04-09T10:19:43;101728.00;;;17.87;43.40
25232;BME280;13176;51.140;6.290;2023-04-09T10:22:17;101710.34;;;17.89;42.90
25232;BME280;13176;51.140;6.290;2023-04-09T10:24:46;101734.28;;;18.15;42.72
25232;BME280;13176;51.140;6.290;2023-04-09T10:27:15;101728.28;;;18.40;42.50
25232;BME280;13176;51.140;6.290;2023-04-09T10:29:44;101709.59;;;18.46;43.97
25232;BME280;13176;51.140;6.290;2023-04-09T10:32:12;101688.09;;;18.58;43.30
25232;BME280;13176;51.140;6.290;2023-04-09T10:34:40;101686.00;;;18.68;42.00
25232;BME280;13176;51.140;6.290;2023-04-09T10:37:08;101730.25;;;18.92;40.46
25232;BME280;13176;51.140;6.290;2023-04-09T10:39:39;101719.66;;;18.92;40.05
25232;BME280;13176;51.140;6.290;2023-04-09T10:45:10;101729.66;;;19.87;37.35
25232;BME280;13176;51.140;6.290;2023-04-09T10:47:38;101708.00;;;20.69;36.90
25232;BME280;13176;51.140;6.290;2023-04-09T10:52:42;101690.28;;;25.05;30.03
25232;BME280;13176;51.140;6.290;2023-04-09T10:55:29;101678.97;;;25.15;28.87
25232;BME280;13176;51.140;6.290;2023-04-09T10:57:57;101662.31;;;25.55;26.57
25232;BME280;13176;51.140;6.290;2023-04-09T11:00:23;101681.56;;;26.19;27.62
25232;BME280;13176;51.140;6.290;2023-04-09T11:05:35;101680.59;;;26.34;25.78
25232;BME280;13176;51.140;6.290;2023-04-09T11:08:07;101612.34;;;25.85;27.71
25232;BME280;13176;51.140;6.290;2023-04-09T11:10:39;101696.00;;;26.98;26.64
25232;BME280;13176;51.140;6.290;2023-04-09T11:13:11;101624.75;;;27.47;26.06
25232;BME280;13176;51.140;6.290;2023-04-09T11:15:38;101582.03;;;26.67;25.73
25232;BME280;13176;51.140;6.290;2023-04-09T11:18:05;101639.13;;;25.85;26.81
25232;BME280;13176;51.140;6.290;2023-04-09T11:20:39;101606.78;;;25.88;26.66
25232;BME280;13176;51.140;6.290;2023-04-09T11:23:06;101638.00;;;26.71;25.61
25232;BME280;13176;51.140;6.290;2023-04-09T11:25:33;101666.16;;;26.50;26.60
25232;BME280;13176;51.140;6.290;2023-04-09T11:28:02;101656.75;;;26.97;26.43
25232;BME280;13176;51.140;6.290;2023-04-09T11:30:30;101612.50;;;26.38;26.33
25232;BME280;13176;51.140;6.290;2023-04-09T11:32:56;101602.28;;;26.30;28.60
25232;BME280;13176;51.140;6.290;2023-04-09T11:35:23;101651.72;;;26.25;28.15
25232;BME280;13176;51.140;6.290;2023-04-09T11:37:50;101632.03;;;25.84;27.66
25232;BME280;13176;51.140;6.290;2023-04-09T11:40:22;101612.34;;;26.13;27.47
25232;BME280;13176;51.140;6.290;2023-04-09T11:42:51;101624.38;;;26.48;28.86
25232;BME280;13176;51.140;6.290;2023-04-09T11:45:19;101653.31;;;27.09;27.69
25232;BME280;13176;51.140;6.290;2023-04-09T11:47:46;101641.66;;;26.70;26.16
25232;BME280;13176;51.140;6.290;2023-04-09T11:50:14;101655.00;;;26.16;28.74
25232;BME280;13176;51.140;6.290;2023-04-09T11:52:43;101559.56;;;25.45;27.73
25232;BME280;13176;51.140;6.290;2023-04-09T11:55:10;101587.06;;;26.31;29.44
25232;BME280;13176;51.140;6.290;2023-04-09T11:57:45;101644.28;;;25.72;29.52
25232;BME280;13176;51.140;6.290;2023-04-09T12:00:13;101638.84;;;25.60;29.48
25232;BME280;13176;51.140;6.290;2023-04-09T12:02:42;101626.59;;;25.99;28.52
25232;BME280;13176;51.140;6.290;2023-04-09T12:05:30;101649.22;;;25.94;28.52
25232;BME280;13176;51.140;6.290;2023-04-09T12:08:06;101648.34;;;25.50;28.26
25232;BME280;13176;51.140;6.290;2023-04-09T12:10:35;101640.75;;;25.58;28.01
25232;BME280;13176;51.140;6.290;2023-04-09T12:13:04;101611.56;;;24.50;28.75
25232;BME280;13176;51.140;6.290;2023-04-09T12:15:35;101603.47;;;24.04;28.02
25232;BME280;13176;51.140;6.290;2023-04-09T12:18:02;101656.53;;;24.40;29.40
25232;BME280;13176;51.140;6.290;2023-04-09T12:20:33;101632.41;;;24.74;30.00
25232;BME280;13176;51.140;6.290;2023-04-09T12:23:02;101562.00;;;24.29;28.67
25232;BME280;13176;51.140;6.290;2023-04-09T12:25:30;101633.88;;;24.49;29.65
25232;BME280;13176;51.140;6.290;2023-04-09T12:27:57;101561.56;;;24.06;30.31
25232;BME280;13176;51.140;6.290;2023-04-09T12:30:24;101568.47;;;23.77;29.03
25232;BME280;13176;51.140;6.290;2023-04-09T12:32:51;101642.94;;;24.29;30.67
25232;BME280;13176;51.140;6.290;2023-04-09T12:35:18;101620.63;;;23.83;29.67
25232;BME280;13176;51.140;6.290;2023-04-09T12:37:44;101632.25;;;24.14;30.63
25232;BME280;13176;51.140;6.290;2023-04-09T12:40:11;101649.28;;;24.12;29.96
25232;BME280;13176;51.140;6.290;2023-04-09T12:42:41;101651.88;;;24.13;29.45
25232;BME280;13176;51.140;6.290;2023-04-09T12:45:08;101554.44;;;23.74;30.35
25232;BME280;13176;51.140;6.290;2023-04-09T12:47:36;101645.94;;;24.56;30.87
25232;BME280;13176;51.140;6.290;2023-04-09T12:50:03;101603.38;;;24.68;31.68
25232;BME280;13176;51.140;6.290;2023-04-09T12:52:30;101615.19;;;25.25;29.56
25232;BME280;13176;51.140;6.290;2023-04-09T12:54:56;101586.56;;;25.11;29.97
25232;BME280;13176;51.140;6.290;2023-04-09T12:57:23;101597.09;;;25.14;29.97
25232;BME280;13176;51.140;6.290;2023-04-09T12:59:49;101550.69;;;25.15;27.81
25232;BME280;13176;51.140;6.290;2023-04-09T13:02:17;101596.78;;;24.89;29.31
25232;BME280;13176;51.140;6.290;2023-04-09T13:04:44;101608.13;;;25.08;28.83
25232;BME280;13176;51.140;6.290;2023-04-09T13:07:10;101603.13;;;25.02;30.40
25232;BME280;13176;51.140;6.290;2023-04-09T13:09:38;101600.94;;;24.64;29.66
25232;BME280;13176;51.140;6.290;2023-04-09T13:12:04;101607.28;;;25.51;28.81
25232;BME280;13176;51.140;6.290;2023-04-09T13:14:31;101601.66;;;24.67;28.21